Accueil
METAR-TAF:

METAR-TAF

Aéroports :

Lihue, Hawaï, États-Unis

latitude: 21-59-02N, longitude: 159-20-28W, altitude: 45 m

Observation

Le bulletin a été fait il y a 1 heure et 4 minutes, à 09:53 UTC
Vent 11 kt de nord-est
Température 26°C
Humidité 74%
Pression 1018 hPa
Visibilité: 16.1 km
Quelques nuages à une hauteur de 2500 ft

METAR: PHLI 220953Z 05011KT 10SM FEW025 26/21 A3005 RMK AO2 SLP172 T02560206 403000250 $

Heure: 00:57 (10:57 UTC)

Prévision

Le bulletin a été fait il y a 5 heures et 18 minutes, à 05:39 UTC
Prévision valable du 22 à 06 UTC au 23 à 06 UTC
Vent 15 kt de est/nord-est
Visibilité: 10 km
Nuages épars à une hauteur de 2500 ft
Nuages fragmentés à une hauteur de 4500 ft
averses à proximité

TAF: PHLI 220539Z 2206/2306 06015KT P6SM VCSH SCT025 BKN045

Observations et prévisions météorologiques de plus de 4000 aéroports (messages METAR et TAF).

Les stations disponibles sont représentées par des disques jaunes et rouges sur la carte.

Passer la souris dessus pour voir le nom de la station.

Cliquer dessus pour voir les observations et prévisions météorologiques.

Pour changer de carte: cliquez sur les boutons verts avec une croix noire pour zoomer, sur le bouton vert avec un tiret pour effectuer un zoom arrière, ou sur les flèches vertes pour les cartes adjacentes.


METAR-TAF: